Time;durP1;ratioP1;P1;durP2;ratioP2;P2;SDS_P1;SDS_P2;PMS_P1;PMS_P2;Temp;Humidity;BMP_temperature;BMP_pressure;BME280_temperature;BME280_humidity;BME280_pressure;Samples;Min_cycle;Max_cycle;Signal;HPM_P1;HPM_P2
2022/01/04 00:01:48;;;;;;;;;;;26.50;99.90;;;;;;5090908;28;20273;-71
2022/01/04 00:04:15;;;;;;;;;;;26.50;99.90;;;;;;5092181;28;19916;-70
2022/01/04 00:06:44;;;;;;;;;;;26.50;99.90;;;;;;5092241;28;20271;-71
2022/01/04 00:09:12;;;;;;;;;;;26.70;99.90;;;;;;5092028;28;19912;-71
2022/01/04 00:11:59;;;;;;;;;;;26.70;99.90;;;;;;5092389;28;20406;-70
2022/01/04 00:14:25;;;;;;;;;;;26.60;99.90;;;;;;5092456;28;19908;-70
2022/01/04 00:16:55;;;;;;;;;;;26.50;99.90;;;;;;5094672;28;19916;-70
2022/01/04 00:19:22;;;;;;;;;;;26.60;99.90;;;;;;5096143;28;19908;-71
2022/01/04 00:21:49;;;;;;;;;;;26.70;99.90;;;;;;5095878;28;20011;-70
2022/01/04 00:24:15;;;;;;;;;;;26.90;99.90;;;;;;5095796;28;19915;-71
2022/01/04 00:26:42;;;;;;;;;;;27.00;99.90;;;;;;5096001;28;19908;-70
2022/01/04 00:29:08;;;;;;;;;;;27.00;99.90;;;;;;5095861;28;19912;-70
2022/01/04 00:31:35;;;;;;;;;;;27.00;99.90;;;;;;5095513;28;19953;-70
2022/01/04 00:34:02;;;;;;;;;;;27.00;99.90;;;;;;5095309;28;19915;-70
2022/01/04 00:36:28;;;;;;;;;;;27.10;99.90;;;;;;5095795;28;20023;-71
2022/01/04 00:38:55;;;;;;;;;;;27.40;99.90;;;;;;5095730;28;19936;-71
2022/01/04 00:41:22;;;;;;;;;;;27.60;99.90;;;;;;5095632;28;19955;-70
2022/01/04 00:43:48;;;;;;;;;;;27.70;99.90;;;;;;5095522;28;19912;-71
2022/01/04 00:46:17;;;;;;;;;;;27.90;99.90;;;;;;5095302;28;20063;-71
2022/01/04 00:51:29;;;;;;;;;;;28.00;99.90;;;;;;5095792;28;19965;-70
2022/01/04 00:53:55;;;;;;;;;;;27.70;99.90;;;;;;5095160;28;19915;-70
2022/01/04 00:56:22;;;;;;;;;;;27.40;99.90;;;;;;5095152;28;20263;-70
2022/01/04 00:58:49;;;;;;;;;;;27.30;99.90;;;;;;5095323;28;20042;-70
2022/01/04 01:01:16;;;;;;;;;;;27.40;99.90;;;;;;5095306;28;19908;-71
2022/01/04 01:03:42;;;;;;;;;;;27.30;99.90;;;;;;5094946;28;19912;-71
2022/01/04 01:06:09;;;;;;;;;;;27.70;99.90;;;;;;5095005;28;19975;-71
2022/01/04 01:08:36;;;;;;;;;;;28.00;99.90;;;;;;5095286;28;19957;-71
2022/01/04 01:11:04;;;;;;;;;;;28.40;99.90;;;;;;5095187;28;19920;-70
2022/01/04 01:13:32;;;;;;;;;;;28.70;99.90;;;;;;5094895;28;19960;-70
2022/01/04 01:15:58;;;;;;;;;;;28.90;99.90;;;;;;5094764;28;19916;-71
2022/01/04 01:18:25;;;;;;;;;;;28.90;99.90;;;;;;5094655;28;19908;-70
2022/01/04 01:20:52;;;;;;;;;;;29.20;99.90;;;;;;5094883;28;19961;-71
2022/01/04 01:23:20;;;;;;;;;;;28.90;99.90;;;;;;5094745;28;19919;-71
2022/01/04 01:25:47;;;;;;;;;;;28.60;99.90;;;;;;5094651;28;20016;-70
2022/01/04 01:28:14;;;;;;;;;;;28.20;99.90;;;;;;5093880;28;20251;-70
2022/01/04 01:30:43;;;;;;;;;;;28.00;99.90;;;;;;5094549;28;19908;-70
2022/01/04 01:33:10;;;;;;;;;;;27.80;99.90;;;;;;5094504;28;19909;-70
2022/01/04 01:35:37;;;;;;;;;;;28.10;99.90;;;;;;5094506;28;19919;-70
2022/01/04 01:38:05;;;;;;;;;;;28.70;99.90;;;;;;5094088;28;19916;-70
2022/01/04 01:40:31;;;;;;;;;;;28.90;99.90;;;;;;5094328;28;20301;-70
2022/01/04 01:42:58;;;;;;;;;;;29.30;99.90;;;;;;5094415;28;19918;-70
2022/01/04 01:45:25;;;;;;;;;;;29.40;99.90;;;;;;5094490;28;19908;-71
2022/01/04 01:47:53;;;;;;;;;;;29.60;99.90;;;;;;5094001;28;19958;-70
2022/01/04 01:50:20;;;;;;;;;;;29.30;99.90;;;;;;5094307;28;19908;-70
2022/01/04 01:52:47;;;;;;;;;;;29.30;99.90;;;;;;5094110;28;19969;-71
2022/01/04 01:55:15;;;;;;;;;;;29.30;99.90;;;;;;5094493;28;19915;-71
2022/01/04 01:57:41;;;;;;;;;;;28.80;99.90;;;;;;5094122;28;19960;-70
2022/01/04 02:00:09;;;;;;;;;;;28.70;99.90;;;;;;5093908;28;19912;-70
2022/01/04 02:02:36;;;;;;;;;;;28.40;99.90;;;;;;5093877;28;19989;-70
2022/01/04 02:05:03;;;;;;;;;;;28.20;99.90;;;;;;5093970;28;19915;-70
2022/01/04 02:07:30;;;;;;;;;;;28.10;99.90;;;;;;5093841;28;19908;-70
2022/01/04 02:10:04;;;;;;;;;;;27.80;99.90;;;;;;5093570;28;20007;-70
2022/01/04 02:12:32;;;;;;;;;;;27.70;99.90;;;;;;5093889;28;19912;-70
2022/01/04 02:14:59;;;;;;;;;;;27.70;99.90;;;;;;5093850;28;19918;-70
2022/01/04 02:17:26;;;;;;;;;;;27.70;99.90;;;;;;5093602;28;19935;-70
2022/01/04 02:20:03;;;;;;;;;;;27.60;99.90;;;;;;5093373;28;19961;-70
2022/01/04 02:22:31;;;;;;;;;;;27.70;99.90;;;;;;5093760;28;19908;-70
2022/01/04 02:24:58;;;;;;;;;;;27.50;99.90;;;;;;5093603;28;20378;-69
2022/01/04 02:27:25;;;;;;;;;;;27.50;99.90;;;;;;5093573;28;20007;-71
2022/01/04 02:29:51;;;;;;;;;;;27.60;99.90;;;;;;5093291;28;19915;-70
2022/01/04 02:32:18;;;;;;;;;;;27.50;99.90;;;;;;5093451;28;19912;-70
2022/01/04 02:34:49;;;;;;;;;;;27.50;99.90;;;;;;5093334;28;19916;-71
2022/01/04 02:37:20;;;;;;;;;;;27.60;99.90;;;;;;5093384;28;20382;-71
2022/01/04 02:39:47;;;;;;;;;;;27.50;99.90;;;;;;5092236;28;19909;-70
2022/01/04 02:42:14;;;;;;;;;;;27.50;99.90;;;;;;5093339;28;19938;-70
2022/01/04 02:44:41;;;;;;;;;;;27.50;99.90;;;;;;5093261;28;19962;-70
2022/01/04 02:47:07;;;;;;;;;;;27.50;99.90;;;;;;5093053;28;19908;-70
2022/01/04 02:49:34;;;;;;;;;;;27.40;99.90;;;;;;5092783;28;19915;-70
2022/01/04 02:52:01;;;;;;;;;;;27.40;99.90;;;;;;5092645;28;20259;-70
2022/01/04 02:54:27;;;;;;;;;;;27.30;99.90;;;;;;5093018;28;19908;-71
2022/01/04 02:56:54;;;;;;;;;;;27.20;99.90;;;;;;5092954;28;19916;-70
2022/01/04 02:59:21;;;;;;;;;;;27.20;99.90;;;;;;5093070;28;19908;-70
2022/01/04 03:01:47;;;;;;;;;;;27.20;99.90;;;;;;5092619;28;19908;-70
2022/01/04 03:04:14;;;;;;;;;;;27.20;99.90;;;;;;5092715;28;19954;-70
2022/01/04 03:06:41;;;;;;;;;;;27.30;99.90;;;;;;5092862;28;19908;-70
2022/01/04 03:09:07;;;;;;;;;;;27.20;99.90;;;;;;5092627;28;19944;-70
2022/01/04 03:11:34;;;;;;;;;;;27.30;99.90;;;;;;5092847;28;19977;-70
2022/01/04 03:14:01;;;;;;;;;;;27.40;99.90;;;;;;5092433;28;19934;-70
2022/01/04 03:16:28;;;;;;;;;;;27.60;99.90;;;;;;5092809;28;19962;-70
2022/01/04 03:21:21;;;;;;;;;;;27.50;99.90;;;;;;5092661;28;20307;-69
2022/01/04 03:23:48;;;;;;;;;;;27.60;99.90;;;;;;5092408;28;19915;-70
2022/01/04 03:26:14;;;;;;;;;;;27.60;99.90;;;;;;5092655;28;19915;-70
2022/01/04 03:28:42;;;;;;;;;;;27.50;99.90;;;;;;5092479;28;19908;-68
2022/01/04 03:31:09;;;;;;;;;;;27.30;99.90;;;;;;5092536;28;19934;-69
2022/01/04 03:33:36;;;;;;;;;;;27.10;99.90;;;;;;5092556;28;19990;-70
2022/01/04 03:36:04;;;;;;;;;;;27.10;99.90;;;;;;5091079;28;20419;-70
2022/01/04 03:38:30;;;;;;;;;;;27.20;99.90;;;;;;5092632;28;20006;-71
2022/01/04 03:40:57;;;;;;;;;;;27.20;99.90;;;;;;5092399;28;19923;-68
2022/01/04 03:43:24;;;;;;;;;;;27.20;99.90;;;;;;5092493;28;19924;-68
2022/01/04 03:45:50;;;;;;;;;;;27.10;99.90;;;;;;5092052;28;19908;-69
2022/01/04 03:48:18;;;;;;;;;;;27.10;99.90;;;;;;5092425;28;19912;-69
2022/01/04 03:50:45;;;;;;;;;;;27.10;99.90;;;;;;5092868;28;20002;-70
2022/01/04 03:53:11;;;;;;;;;;;27.20;99.90;;;;;;5096269;28;19915;-69
2022/01/04 03:55:39;;;;;;;;;;;27.10;99.90;;;;;;5096483;28;19915;-70
2022/01/04 03:58:06;;;;;;;;;;;27.30;99.90;;;;;;5096330;28;20003;-69
2022/01/04 04:00:32;;;;;;;;;;;27.10;99.90;;;;;;5096393;28;19968;-69
2022/01/04 04:02:59;;;;;;;;;;;27.30;99.90;;;;;;5096261;28;19955;-70
2022/01/04 04:05:26;;;;;;;;;;;27.20;99.90;;;;;;5096332;28;19916;-70
2022/01/04 04:07:52;;;;;;;;;;;27.50;99.90;;;;;;5096043;28;19962;-69
2022/01/04 04:10:19;;;;;;;;;;;27.40;99.90;;;;;;5095908;28;20290;-69
2022/01/04 04:12:45;;;;;;;;;;;27.20;99.90;;;;;;5096183;28;20003;-69
2022/01/04 04:15:12;;;;;;;;;;;27.30;99.90;;;;;;5096151;28;20003;-69
2022/01/04 04:17:39;;;;;;;;;;;27.00;99.90;;;;;;5095716;28;19920;-70
2022/01/04 04:20:06;;;;;;;;;;;26.90;99.90;;;;;;5095804;28;19951;-69
2022/01/04 04:22:32;;;;;;;;;;;27.00;99.90;;;;;;5095902;28;19915;-70
2022/01/04 04:24:59;;;;;;;;;;;27.20;99.90;;;;;;5095640;28;20420;-70
2022/01/04 04:27:26;;;;;;;;;;;27.50;99.90;;;;;;5095695;28;19908;-69
2022/01/04 04:29:52;;;;;;;;;;;27.50;99.90;;;;;;5095608;28;20355;-69
2022/01/04 04:32:19;;;;;;;;;;;27.50;99.90;;;;;;5095752;28;20334;-70
2022/01/04 04:34:45;;;;;;;;;;;27.30;99.90;;;;;;5095738;28;20357;-69
2022/01/04 04:37:12;;;;;;;;;;;27.40;99.90;;;;;;5095723;28;20370;-70
2022/01/04 04:39:39;;;;;;;;;;;27.30;99.90;;;;;;5095608;28;19916;-71
2022/01/04 04:42:06;;;;;;;;;;;27.30;99.90;;;;;;5095410;28;20316;-70
2022/01/04 04:44:32;;;;;;;;;;;27.40;99.90;;;;;;5095723;28;19954;-70
2022/01/04 04:46:59;;;;;;;;;;;27.20;99.90;;;;;;5095222;28;19912;-70
2022/01/04 04:49:26;;;;;;;;;;;27.30;99.90;;;;;;5095519;28;19915;-70
2022/01/04 04:51:54;;;;;;;;;;;27.10;99.90;;;;;;5095331;28;19909;-70
2022/01/04 04:54:21;;;;;;;;;;;27.10;99.90;;;;;;5095360;28;19919;-70
2022/01/04 04:56:48;;;;;;;;;;;27.10;99.90;;;;;;5095205;28;19962;-69
2022/01/04 04:59:14;;;;;;;;;;;27.00;99.90;;;;;;5095515;28;20271;-68
2022/01/04 05:01:41;;;;;;;;;;;26.90;99.90;;;;;;5095020;28;19962;-70
2022/01/04 05:04:08;;;;;;;;;;;26.80;99.90;;;;;;5094232;28;20350;-70
2022/01/04 05:06:34;;;;;;;;;;;26.70;99.90;;;;;;5095062;28;19909;-69
2022/01/04 05:09:01;;;;;;;;;;;26.70;99.90;;;;;;5094974;28;19908;-71
2022/01/04 05:11:28;;;;;;;;;;;26.70;99.90;;;;;;5095025;28;19917;-69
2022/01/04 05:13:54;;;;;;;;;;;26.60;99.90;;;;;;5094767;28;19960;-69
2022/01/04 05:16:21;;;;;;;;;;;26.70;99.90;;;;;;5094700;28;20006;-70
2022/01/04 05:18:47;;;;;;;;;;;26.50;99.90;;;;;;5094911;28;19919;-69
2022/01/04 05:21:14;;;;;;;;;;;26.40;99.90;;;;;;5094985;28;20274;-70
2022/01/04 05:23:41;;;;;;;;;;;26.50;99.90;;;;;;5094933;28;19915;-70
2022/01/04 05:26:08;;;;;;;;;;;26.60;99.90;;;;;;5094669;28;19907;-70
2022/01/04 05:28:34;;;;;;;;;;;26.70;99.90;;;;;;5094770;28;19908;-71
2022/01/04 05:31:01;;;;;;;;;;;26.70;99.90;;;;;;5094617;28;19954;-70
2022/01/04 05:33:27;;;;;;;;;;;26.60;99.90;;;;;;5094586;28;19908;-70
2022/01/04 05:35:54;;;;;;;;;;;26.60;99.90;;;;;;5094300;28;19912;-70
2022/01/04 05:38:21;;;;;;;;;;;26.60;99.90;;;;;;5094676;28;19966;-71
2022/01/04 05:40:47;;;;;;;;;;;26.60;99.90;;;;;;5094551;28;19953;-70
2022/01/04 05:43:14;;;;;;;;;;;26.60;99.90;;;;;;5094385;28;19914;-68
2022/01/04 05:45:41;;;;;;;;;;;26.60;99.90;;;;;;5094182;28;19916;-69
2022/01/04 05:48:07;;;;;;;;;;;26.70;99.90;;;;;;5093896;28;20006;-69
2022/01/04 05:50:34;;;;;;;;;;;26.60;99.90;;;;;;5093862;28;19915;-69
2022/01/04 05:53:01;;;;;;;;;;;26.60;99.90;;;;;;5091598;28;19959;-69
2022/01/04 05:55:28;;;;;;;;;;;26.60;99.90;;;;;;5092221;28;19919;-69
2022/01/04 05:57:54;;;;;;;;;;;26.40;99.90;;;;;;5090540;28;20298;-69
2022/01/04 06:00:21;;;;;;;;;;;26.40;99.90;;;;;;5091778;28;19908;-69
2022/01/04 06:02:48;;;;;;;;;;;26.30;99.90;;;;;;5091683;28;20019;-69
2022/01/04 06:05:14;;;;;;;;;;;26.20;99.90;;;;;;5091680;28;19954;-69
2022/01/04 06:07:41;;;;;;;;;;;26.30;99.90;;;;;;5091947;28;19908;-69
2022/01/04 06:10:09;;;;;;;;;;;26.10;99.90;;;;;;5091291;28;19920;-69
2022/01/04 06:15:07;;;;;;;;;;;26.30;99.90;;;;;;5091326;28;20562;-69
2022/01/04 06:17:39;;;;;;;;;;;26.50;99.90;;;;;;5122593;27;20271;-70
2022/01/04 06:20:06;;;;;;;;;;;26.50;99.90;;;;;;5091449;28;19915;-69
2022/01/04 06:22:34;;;;;;;;;;;26.50;99.90;;;;;;5091536;28;20313;-69
2022/01/04 06:25:01;;;;;;;;;;;26.30;99.90;;;;;;5091714;28;19908;-71
2022/01/04 06:27:28;;;;;;;;;;;26.20;99.90;;;;;;5091598;28;20564;-70
2022/01/04 06:29:55;;;;;;;;;;;26.20;99.90;;;;;;5090619;28;20006;-69
2022/01/04 06:32:23;;;;;;;;;;;26.20;99.90;;;;;;5091273;28;19915;-69
2022/01/04 06:34:49;;;;;;;;;;;26.10;99.90;;;;;;5089688;28;19915;-70
2022/01/04 06:37:16;;;;;;;;;;;26.10;99.90;;;;;;5091201;28;19916;-69
2022/01/04 06:39:43;;;;;;;;;;;26.10;99.90;;;;;;5070598;28;19909;-69
2022/01/04 06:42:11;;;;;;;;;;;26.00;99.90;;;;;;5070634;28;19916;-70
2022/01/04 06:44:39;;;;;;;;;;;25.90;99.90;;;;;;5070671;28;19913;-70
2022/01/04 06:47:05;;;;;;;;;;;25.90;99.90;;;;;;5070191;28;19916;-70
2022/01/04 06:49:32;;;;;;;;;;;25.90;99.90;;;;;;5070533;28;19916;-69
2022/01/04 06:51:59;;;;;;;;;;;25.90;99.90;;;;;;5070545;28;20358;-70
2022/01/04 06:54:25;;;;;;;;;;;25.80;99.90;;;;;;5070594;28;19909;-70
2022/01/04 06:56:52;;;;;;;;;;;25.90;99.90;;;;;;5070447;28;19917;-70
2022/01/04 06:59:19;;;;;;;;;;;25.90;99.90;;;;;;5070396;28;19920;-70
2022/01/04 07:01:46;;;;;;;;;;;25.90;99.90;;;;;;5069332;28;19965;-70
2022/01/04 07:04:12;;;;;;;;;;;25.90;99.90;;;;;;5102956;28;19919;-69
2022/01/04 07:06:39;;;;;;;;;;;25.80;99.90;;;;;;5070625;28;20360;-70
2022/01/04 07:09:07;;;;;;;;;;;25.80;99.90;;;;;;5070394;28;20384;-69
2022/01/04 07:11:34;;;;;;;;;;;25.80;99.90;;;;;;5070535;28;19920;-70
2022/01/04 07:14:01;;;;;;;;;;;25.80;99.90;;;;;;5069775;28;19923;-69
2022/01/04 07:16:27;;;;;;;;;;;25.70;99.90;;;;;;5069677;28;19921;-69
2022/01/04 07:18:54;;;;;;;;;;;25.60;99.90;;;;;;5070364;28;19913;-70
2022/01/04 07:21:21;;;;;;;;;;;25.50;99.90;;;;;;5070799;28;20374;-69
2022/01/04 07:23:48;;;;;;;;;;;25.50;99.90;;;;;;5070095;28;19958;-70
2022/01/04 07:26:15;;;;;;;;;;;25.40;99.90;;;;;;5069831;28;19908;-69
2022/01/04 07:28:44;;;;;;;;;;;25.40;99.90;;;;;;5070233;28;20023;-69
2022/01/04 07:31:11;;;;;;;;;;;25.30;99.90;;;;;;5069929;28;19913;-70
2022/01/04 07:33:38;;;;;;;;;;;25.30;99.90;;;;;;5070327;28;19915;-70
2022/01/04 07:36:09;;;;;;;;;;;25.40;99.90;;;;;;5069748;28;19908;-70
2022/01/04 07:38:36;;;;;;;;;;;25.40;99.90;;;;;;5070023;28;19908;-70
2022/01/04 07:41:03;;;;;;;;;;;25.40;99.90;;;;;;5069753;28;19915;-69
2022/01/04 07:43:30;;;;;;;;;;;25.30;99.90;;;;;;5070167;28;19915;-70
2022/01/04 07:45:57;;;;;;;;;;;25.30;99.90;;;;;;5069354;28;19948;-69
2022/01/04 07:48:23;;;;;;;;;;;25.30;99.90;;;;;;5070035;28;20212;-70
2022/01/04 07:50:53;;;;;;;;;;;25.30;99.90;;;;;;5069817;28;20351;-69
2022/01/04 07:53:19;;;;;;;;;;;25.30;99.90;;;;;;5070049;28;19920;-70
2022/01/04 07:55:46;;;;;;;;;;;25.20;99.90;;;;;;5069961;28;20416;-70
2022/01/04 07:58:12;;;;;;;;;;;25.20;99.90;;;;;;5069445;28;19923;-70
2022/01/04 08:00:39;;;;;;;;;;;25.20;99.90;;;;;;5070002;28;20038;-70
2022/01/04 08:03:07;;;;;;;;;;;25.20;99.90;;;;;;5070097;28;19971;-69
2022/01/04 08:05:33;;;;;;;;;;;25.10;99.90;;;;;;5070645;28;20015;-69
2022/01/04 08:08:00;;;;;;;;;;;25.00;99.90;;;;;;5071902;28;19909;-70
2022/01/04 08:10:27;;;;;;;;;;;24.90;99.90;;;;;;5071898;28;20353;-69
2022/01/04 08:12:53;;;;;;;;;;;24.90;99.90;;;;;;5072119;28;19916;-69
2022/01/04 08:15:20;;;;;;;;;;;24.90;99.90;;;;;;5072198;28;19908;-69
2022/01/04 08:17:47;;;;;;;;;;;24.90;99.90;;;;;;5071953;28;20351;-69
2022/01/04 08:20:17;;;;;;;;;;;24.80;99.90;;;;;;5071946;28;19997;-69
2022/01/04 08:22:43;;;;;;;;;;;24.90;99.90;;;;;;5071754;28;19908;-70
2022/01/04 08:25:11;;;;;;;;;;;24.80;99.90;;;;;;5071829;28;20001;-69
2022/01/04 08:27:38;;;;;;;;;;;24.90;99.90;;;;;;5071824;28;19909;-69
2022/01/04 08:30:06;;;;;;;;;;;24.80;99.90;;;;;;5071496;28;20262;-69
2022/01/04 08:32:33;;;;;;;;;;;24.90;99.90;;;;;;5071819;28;19908;-70
2022/01/04 08:34:59;;;;;;;;;;;24.90;99.90;;;;;;5071843;28;19913;-69
2022/01/04 08:37:26;;;;;;;;;;;24.90;99.90;;;;;;5073572;28;20291;-69
2022/01/04 08:39:53;;;;;;;;;;;24.80;99.90;;;;;;5075284;28;19916;-69
2022/01/04 08:42:22;;;;;;;;;;;24.70;99.90;;;;;;5075342;28;19916;-69
2022/01/04 08:44:55;;;;;;;;;;;24.60;99.90;;;;;;5075233;28;20417;-69
2022/01/04 08:47:26;;;;;;;;;;;24.60;99.90;;;;;;5075686;28;19984;-69
2022/01/04 08:49:53;;;;;;;;;;;24.50;99.90;;;;;;5074781;28;19944;-69
2022/01/04 08:52:19;;;;;;;;;;;24.40;99.90;;;;;;5075124;28;19913;-69
2022/01/04 08:54:46;;;;;;;;;;;24.30;99.90;;;;;;5075141;28;19916;-69
2022/01/04 08:57:13;;;;;;;;;;;24.20;99.90;;;;;;5074922;28;19916;-69
2022/01/04 08:59:39;;;;;;;;;;;24.20;99.90;;;;;;5074308;28;19913;-70
2022/01/04 09:02:06;;;;;;;;;;;24.20;99.90;;;;;;5074839;28;19947;-70
2022/01/04 09:04:32;;;;;;;;;;;24.20;99.90;;;;;;5074356;28;19915;-70
2022/01/04 09:07:00;;;;;;;;;;;24.10;99.90;;;;;;5075147;28;19917;-69
2022/01/04 09:09:26;;;;;;;;;;;24.20;99.90;;;;;;5074803;28;19940;-69
2022/01/04 09:11:53;;;;;;;;;;;24.10;99.90;;;;;;5074632;28;19909;-69
2022/01/04 09:14:28;;;;;;;;;;;24.20;99.90;;;;;;5074541;28;20385;-69
2022/01/04 09:19:40;;;;;;;;;;;24.20;99.90;;;;;;5074190;28;19990;-69
2022/01/04 09:22:07;;;;;;;;;;;24.20;99.90;;;;;;5074377;28;19912;-69
2022/01/04 09:24:34;;;;;;;;;;;24.20;99.90;;;;;;5074523;28;19908;-70
2022/01/04 09:27:05;;;;;;;;;;;24.20;99.90;;;;;;5074612;28;19954;-69
2022/01/04 09:29:32;;;;;;;;;;;24.20;99.90;;;;;;5074606;28;19916;-69
2022/01/04 09:32:00;;;;;;;;;;;24.20;99.90;;;;;;5074434;28;20278;-69
2022/01/04 09:34:27;;;;;;;;;;;24.30;99.90;;;;;;5073810;28;19909;-70
2022/01/04 09:36:54;;;;;;;;;;;24.20;99.90;;;;;;5074233;28;19917;-70
2022/01/04 09:39:22;;;;;;;;;;;24.00;99.90;;;;;;5074158;28;19997;-70
2022/01/04 09:41:49;;;;;;;;;;;23.90;99.90;;;;;;5074046;28;19908;-69
2022/01/04 09:44:15;;;;;;;;;;;23.80;99.90;;;;;;5072731;28;19909;-70
2022/01/04 09:46:42;;;;;;;;;;;23.80;99.90;;;;;;5074202;28;19915;-70
2022/01/04 09:49:10;;;;;;;;;;;23.80;99.90;;;;;;5073172;28;19912;-69
2022/01/04 09:51:38;;;;;;;;;;;23.80;99.90;;;;;;5091573;28;20363;-70
2022/01/04 09:54:05;;;;;;;;;;;23.90;99.90;;;;;;5093608;28;19966;-70
2022/01/04 09:56:31;;;;;;;;;;;23.90;99.90;;;;;;5094021;28;19916;-69
2022/01/04 09:58:58;;;;;;;;;;;23.90;99.90;;;;;;5094037;28;19970;-70
2022/01/04 10:01:26;;;;;;;;;;;23.90;99.90;;;;;;5094103;28;20263;-70
2022/01/04 10:03:53;;;;;;;;;;;23.80;99.90;;;;;;5093484;28;19908;-69
2022/01/04 10:06:20;;;;;;;;;;;23.80;99.90;;;;;;5093962;28;19998;-70
2022/01/04 10:08:51;;;;;;;;;;;23.80;99.90;;;;;;5093692;28;19908;-69
2022/01/04 10:11:28;;;;;;;;;;;23.80;99.90;;;;;;5093842;28;19912;-69
2022/01/04 10:13:55;;;;;;;;;;;23.80;99.90;;;;;;5093588;28;19908;-70
2022/01/04 10:16:21;;;;;;;;;;;23.80;99.90;;;;;;5093727;28;19920;-70
2022/01/04 10:18:48;;;;;;;;;;;23.80;99.90;;;;;;5093132;28;20427;-70
2022/01/04 10:21:15;;;;;;;;;;;23.80;99.90;;;;;;5093685;28;20321;-70
2022/01/04 10:23:47;;;;;;;;;;;23.80;99.90;;;;;;5093805;28;20346;-69
2022/01/04 10:26:13;;;;;;;;;;;23.80;99.90;;;;;;5093669;28;19994;-69
2022/01/04 10:28:41;;;;;;;;;;;23.80;99.90;;;;;;5093553;28;19915;-69
2022/01/04 10:31:09;;;;;;;;;;;23.80;99.90;;;;;;5093633;28;19915;-70
2022/01/04 10:33:36;;;;;;;;;;;23.90;99.90;;;;;;5092812;28;19916;-70
2022/01/04 10:36:11;;;;;;;;;;;23.90;99.90;;;;;;5093235;28;19962;-70
2022/01/04 10:38:40;;;;;;;;;;;23.80;99.90;;;;;;5093584;28;19912;-70
2022/01/04 10:41:10;;;;;;;;;;;23.90;99.90;;;;;;5093399;28;19908;-70
2022/01/04 10:43:44;;;;;;;;;;;23.90;99.90;;;;;;5093097;28;19950;-70
2022/01/04 10:46:12;;;;;;;;;;;23.80;99.90;;;;;;5093684;28;20369;-70
2022/01/04 10:48:43;;;;;;;;;;;23.80;99.90;;;;;;5092680;28;19916;-70
2022/01/04 10:51:21;;;;;;;;;;;23.70;99.90;;;;;;5093296;28;19908;-70
2022/01/04 10:53:52;;;;;;;;;;;23.70;99.90;;;;;;5093115;28;19955;-70
2022/01/04 10:56:26;;;;;;;;;;;23.60;99.90;;;;;;5093300;28;19919;-69
2022/01/04 10:58:53;;;;;;;;;;;23.60;99.90;;;;;;5092902;28;19931;-70
2022/01/04 11:01:26;;;;;;;;;;;23.60;99.90;;;;;;5092231;28;19908;-70
2022/01/04 11:03:56;;;;;;;;;;;23.60;99.90;;;;;;5092548;28;19915;-70
2022/01/04 11:06:23;;;;;;;;;;;23.60;99.90;;;;;;5093006;28;19915;-70
2022/01/04 11:08:50;;;;;;;;;;;23.60;99.90;;;;;;5092805;28;19908;-70
2022/01/04 11:11:17;;;;;;;;;;;23.60;99.90;;;;;;5092941;28;20346;-70
2022/01/04 11:13:43;;;;;;;;;;;23.60;99.90;;;;;;5092787;28;19915;-70
2022/01/04 11:16:10;;;;;;;;;;;23.60;99.90;;;;;;5092219;28;19915;-70
2022/01/04 11:18:40;;;;;;;;;;;23.60;99.90;;;;;;5092378;28;19962;-70
2022/01/04 11:21:09;;;;;;;;;;;23.50;99.90;;;;;;5092684;28;20161;-70
2022/01/04 11:23:36;;;;;;;;;;;23.50;99.90;;;;;;5092668;28;19927;-70
2022/01/04 11:26:03;;;;;;;;;;;23.60;99.90;;;;;;5092602;28;19959;-70
2022/01/04 11:28:30;;;;;;;;;;;23.70;99.90;;;;;;5092542;28;19908;-70
2022/01/04 11:31:02;;;;;;;;;;;23.70;99.90;;;;;;5092536;28;19936;-70
2022/01/04 11:33:31;;;;;;;;;;;23.70;99.90;;;;;;5092023;28;20393;-70
2022/01/04 11:35:58;;;;;;;;;;;23.70;99.90;;;;;;5092465;28;19915;-70
2022/01/04 11:38:32;;;;;;;;;;;23.70;99.90;;;;;;5092590;28;19917;-70
2022/01/04 11:40:59;;;;;;;;;;;23.70;99.90;;;;;;5092580;28;19973;-70
2022/01/04 11:43:28;;;;;;;;;;;23.80;99.90;;;;;;5092435;28;19998;-70
2022/01/04 11:45:55;;;;;;;;;;;23.80;99.90;;;;;;5092309;28;19966;-70
2022/01/04 11:48:32;;;;;;;;;;;23.80;99.90;;;;;;5092172;28;19908;-70
2022/01/04 11:51:01;;;;;;;;;;;23.80;99.90;;;;;;5092556;28;20039;-70
2022/01/04 11:53:28;;;;;;;;;;;23.70;99.90;;;;;;5092604;28;19931;-70
2022/01/04 11:55:57;;;;;;;;;;;23.70;99.90;;;;;;5092349;28;20005;-70
2022/01/04 11:58:25;;;;;;;;;;;23.60;99.90;;;;;;5091939;28;19916;-70
2022/01/04 12:01:03;;;;;;;;;;;23.60;99.90;;;;;;5092436;28;19909;-71
2022/01/04 12:03:37;;;;;;;;;;;23.60;99.90;;;;;;5092668;28;19908;-70
2022/01/04 12:06:05;;;;;;;;;;;23.50;99.90;;;;;;5092084;28;19916;-71
2022/01/04 12:08:47;;;;;;;;;;;23.50;99.90;;;;;;5092230;28;19908;-70
2022/01/04 12:11:21;;;;;;;;;;;23.50;99.90;;;;;;5092278;28;19920;-71
2022/01/04 12:13:58;;;;;;;;;;;23.40;99.90;;;;;;5095809;28;20278;-71
2022/01/04 12:16:38;;;;;;;;;;;23.40;99.90;;;;;;5096150;28;19946;-71
2022/01/04 12:19:07;;;;;;;;;;;23.30;99.90;;;;;;5096234;28;19912;-71
2022/01/04 12:21:35;;;;;;;;;;;23.20;99.90;;;;;;5096272;28;19908;-71
2022/01/04 12:24:03;;;;;;;;;;;23.20;99.90;;;;;;5096054;28;20397;-71
2022/01/04 12:26:34;;;;;;;;;;;23.20;99.90;;;;;;5096250;28;19941;-71
2022/01/04 12:29:00;;;;;;;;;;;23.20;99.90;;;;;;5096344;28;19915;-71
2022/01/04 12:31:28;;;;;;;;;;;23.20;99.90;;;;;;5095285;28;19908;-70
2022/01/04 12:33:59;;;;;;;;;;;23.20;99.90;;;;;;5095716;28;19908;-70
2022/01/04 12:36:29;;;;;;;;;;;23.10;99.90;;;;;;5095911;28;19970;-71
2022/01/04 12:38:58;;;;;;;;;;;23.20;99.90;;;;;;5095733;28;19915;-71
2022/01/04 12:41:25;;;;;;;;;;;23.20;99.90;;;;;;5095736;28;20354;-71
2022/01/04 12:43:52;;;;;;;;;;;23.20;99.90;;;;;;5095250;28;19943;-71
2022/01/04 12:46:29;;;;;;;;;;;23.20;99.90;;;;;;5095749;28;19919;-71
2022/01/04 12:48:56;;;;;;;;;;;23.30;99.90;;;;;;5095470;28;19908;-71
2022/01/04 12:51:33;;;;;;;;;;;23.30;99.90;;;;;;5095520;28;20333;-71
2022/01/04 12:54:01;;;;;;;;;;;23.30;99.90;;;;;;5095415;28;19953;-71
2022/01/04 12:56:28;;;;;;;;;;;23.40;99.90;;;;;;5095504;28;20367;-71
2022/01/04 12:58:59;;;;;;;;;;;23.40;99.90;;;;;;5094093;28;19915;-71
2022/01/04 13:01:30;;;;;;;;;;;23.40;99.90;;;;;;5095273;28;19961;-71
2022/01/04 13:03:57;;;;;;;;;;;23.50;99.90;;;;;;5095181;28;20280;-70
2022/01/04 13:06:24;;;;;;;;;;;23.50;99.90;;;;;;5095314;28;19970;-71
2022/01/04 13:08:52;;;;;;;;;;;23.50;99.90;;;;;;5095151;28;19948;-71
2022/01/04 13:11:19;;;;;;;;;;;23.50;99.90;;;;;;5095142;28;20226;-71
2022/01/04 13:13:54;;;;;;;;;;;23.40;99.90;;;;;;5094989;28;19940;-71
2022/01/04 13:16:30;;;;;;;;;;;23.40;99.90;;;;;;5094921;28;19931;-70
2022/01/04 13:19:16;;;;;;;;;;;23.40;99.90;;;;;;5095036;28;19995;-71
2022/01/04 13:21:44;;;;;;;;;;;23.40;99.90;;;;;;5095126;28;20258;-71
2022/01/04 13:24:10;;;;;;;;;;;23.40;99.90;;;;;;5093940;28;19961;-70
2022/01/04 13:26:37;;;;;;;;;;;23.40;99.90;;;;;;5094894;28;19965;-71
2022/01/04 13:29:04;;;;;;;;;;;23.40;99.90;;;;;;5094885;28;19961;-71
2022/01/04 13:31:31;;;;;;;;;;;23.50;99.90;;;;;;5094692;28;19912;-71
2022/01/04 13:33:57;;;;;;;;;;;23.50;99.90;;;;;;5094491;28;19954;-71
2022/01/04 13:36:25;;;;;;;;;;;23.50;99.90;;;;;;5094716;28;19961;-70
2022/01/04 13:39:00;;;;;;;;;;;23.50;99.90;;;;;;5094616;28;19914;-71
2022/01/04 13:41:33;;;;;;;;;;;23.50;99.90;;;;;;5094814;28;19908;-71
2022/01/04 13:44:04;;;;;;;;;;;23.50;99.90;;;;;;5094206;28;19908;-71
2022/01/04 13:46:31;;;;;;;;;;;23.40;99.90;;;;;;5094595;28;19915;-71
2022/01/04 13:48:59;;;;;;;;;;;23.40;99.90;;;;;;5094392;28;20355;-71
2022/01/04 13:51:28;;;;;;;;;;;23.50;99.90;;;;;;5094253;28;20267;-71
2022/01/04 13:53:59;;;;;;;;;;;23.50;99.90;;;;;;5094268;28;19912;-70
2022/01/04 13:56:32;;;;;;;;;;;23.50;99.90;;;;;;5094231;28;19909;-71
2022/01/04 13:59:00;;;;;;;;;;;23.40;99.90;;;;;;5094171;28;20263;-70
2022/01/04 14:01:30;;;;;;;;;;;23.40;99.90;;;;;;5094146;28;20294;-71
2022/01/04 14:04:00;;;;;;;;;;;23.40;99.90;;;;;;5093783;28;19999;-70
2022/01/04 14:06:30;;;;;;;;;;;23.40;99.90;;;;;;5094067;28;19916;-71
2022/01/04 14:08:57;;;;;;;;;;;23.40;99.90;;;;;;5093904;28;19915;-70
2022/01/04 14:11:25;;;;;;;;;;;23.30;99.90;;;;;;5094115;28;19998;-70
2022/01/04 14:13:52;;;;;;;;;;;23.30;99.90;;;;;;5093712;28;19931;-71
2022/01/04 14:16:20;;;;;;;;;;;23.30;99.90;;;;;;5093962;28;20006;-70
2022/01/04 14:19:05;;;;;;;;;;;23.30;99.90;;;;;;5093930;28;19908;-71
2022/01/04 14:21:42;;;;;;;;;;;23.20;99.90;;;;;;5093935;28;19908;-71
2022/01/04 14:24:27;;;;;;;;;;;23.20;99.90;;;;;;5093667;28;19913;-71
2022/01/04 14:26:53;;;;;;;;;;;23.30;99.90;;;;;;5093925;28;20274;-71
2022/01/04 14:29:34;;;;;;;;;;;23.30;99.90;;;;;;5093406;28;20033;-71
2022/01/04 14:32:04;;;;;;;;;;;23.30;99.90;;;;;;5093491;28;20313;-71